createdAt,value
2022-09-01T00:00:05.459Z,82.09
2022-09-01T00:01:05.457Z,81.99
2022-09-01T00:02:05.502Z,82.34
2022-09-01T00:03:05.455Z,82.48
2022-09-01T00:04:05.567Z,82.38
2022-09-01T00:05:05.478Z,82.15
2022-09-01T00:06:05.491Z,82.09
2022-09-01T00:07:05.469Z,82.34
2022-09-01T00:08:05.487Z,81.96
2022-09-01T00:09:05.505Z,81.86
2022-09-01T00:10:05.485Z,82.24
2022-09-01T00:11:05.486Z,81.96
2022-09-01T00:12:05.487Z,82.43
2022-09-01T00:13:05.504Z,82.15
2022-09-01T00:14:05.497Z,81.48
2022-09-01T00:15:05.512Z,81.96
2022-09-01T00:16:05.564Z,82.05
2022-09-01T00:17:05.497Z,82.05
2022-09-01T00:18:05.517Z,82.05
2022-09-01T00:19:05.521Z,82.34
2022-09-01T00:20:05.546Z,82.05
2022-09-01T00:21:05.520Z,81.48
2022-09-01T00:22:05.527Z,81.48
2022-09-01T00:23:05.549Z,81.48
2022-09-01T00:24:05.543Z,81.48
2022-09-01T00:25:05.551Z,80.99
2022-09-01T00:26:05.558Z,81.38
2022-09-01T00:27:05.539Z,81.67
2022-09-01T00:28:05.575Z,81.19
2022-09-01T00:29:05.536Z,81.09
2022-09-01T00:30:05.554Z,80.99
2022-09-01T00:31:05.582Z,80.61
2022-09-01T00:32:05.566Z,80.51
2022-09-01T00:33:05.549Z,80.13
2022-09-01T00:34:05.574Z,80.13
2022-09-01T00:35:05.565Z,80.04
2022-09-01T00:36:05.567Z,80.04
2022-09-01T00:37:05.580Z,79.94
2022-09-01T00:38:05.573Z,80.13
2022-09-01T00:39:05.578Z,79.65
2022-09-01T00:40:05.658Z,79.65
2022-09-01T00:41:05.589Z,79.55
2022-09-01T00:42:05.588Z,79.84
2022-09-01T00:43:05.616Z,79.17
2022-09-01T00:44:05.585Z,79.36
2022-09-01T00:45:05.596Z,79.07
2022-09-01T00:46:05.624Z,78.50
2022-09-01T00:47:05.598Z,78.21
2022-09-01T00:48:05.602Z,78.98
2022-09-01T00:49:05.613Z,78.88
2022-09-01T00:50:05.597Z,78.88
2022-09-01T00:51:05.599Z,78.36
2022-09-01T00:52:05.604Z,78.27
2022-09-01T00:53:05.615Z,78.45
2022-09-01T00:54:05.642Z,79.03
2022-09-01T00:55:05.627Z,78.11
2022-09-01T00:56:05.622Z,78.45
2022-09-01T00:57:05.620Z,78.36
2022-09-01T00:58:05.639Z,78.55
2022-09-01T00:59:05.628Z,78.45
2022-09-01T01:00:05.662Z,78.36
2022-09-01T01:01:05.717Z,78.45
2022-09-01T01:02:05.671Z,78.55
2022-09-01T01:03:05.636Z,78.55
2022-09-01T01:04:05.652Z,78.55
2022-09-01T01:05:05.653Z,78.08
2022-09-01T01:06:05.672Z,78.30
2022-09-01T01:07:05.668Z,78.36
2022-09-01T01:08:05.661Z,78.45
2022-09-01T01:09:05.652Z,78.94
2022-09-01T01:10:05.689Z,78.65
2022-09-01T01:11:05.686Z,79.52
2022-09-01T01:12:05.679Z,79.32
2022-09-01T01:13:05.674Z,78.94
2022-09-01T01:14:05.690Z,79.52
2022-09-01T01:15:05.689Z,79.80
2022-09-01T01:16:05.694Z,79.80
2022-09-01T01:17:05.771Z,79.71
2022-09-01T01:18:05.687Z,80.28
2022-09-01T01:19:05.719Z,80.19
2022-09-01T01:20:05.698Z,79.71
2022-09-01T01:21:05.699Z,79.99
2022-09-01T01:22:05.706Z,80.38
2022-09-01T01:23:05.910Z,80.38
2022-09-01T01:24:05.708Z,80.09
2022-09-01T01:25:05.700Z,79.90
2022-09-01T01:26:05.712Z,80.09
2022-09-01T01:27:05.709Z,80.19
2022-09-01T01:28:05.722Z,80.09
2022-09-01T01:29:05.737Z,80.76
2022-09-01T01:30:05.725Z,80.57
2022-09-01T01:31:05.752Z,80.66
2022-09-01T01:32:05.740Z,80.38
2022-09-01T01:33:05.740Z,80.47
2022-09-01T01:34:05.739Z,80.57
2022-09-01T01:35:05.752Z,80.51
2022-09-01T01:36:05.745Z,80.57
2022-09-01T01:37:05.735Z,80.86
2022-09-01T01:38:05.748Z,80.47
2022-09-01T01:39:05.752Z,80.76
2022-09-01T01:40:05.799Z,80.66
2022-09-01T01:41:05.768Z,80.57
2022-09-01T01:42:05.765Z,80.96
2022-09-01T01:43:05.773Z,81.05
2022-09-01T01:44:05.779Z,81.15
2022-09-01T01:45:05.795Z,80.99
2022-09-01T01:46:05.805Z,81.05
2022-09-01T01:47:05.774Z,80.96
2022-09-01T01:48:05.763Z,81.24
2022-09-01T01:49:05.771Z,81.05
2022-09-01T01:50:05.784Z,81.05
2022-09-01T01:51:05.814Z,80.96
2022-09-01T01:52:06.179Z,81.05
2022-09-01T01:53:11.341Z,80.96
2022-09-01T01:54:05.845Z,81.15
2022-09-01T01:55:05.792Z,81.34
2022-09-01T01:56:05.800Z,81.43
2022-09-01T01:57:05.804Z,81.15
2022-09-01T01:58:05.802Z,81.72
2022-09-01T01:59:06.581Z,81.43
2022-09-01T02:00:05.818Z,81.63
2022-09-01T02:01:05.896Z,81.24
2022-09-01T02:02:05.918Z,81.72
2022-09-01T02:03:05.808Z,81.34
2022-09-01T02:04:05.823Z,82.20
2022-09-01T02:05:05.829Z,82.30
2022-09-01T02:06:05.834Z,82.01
2022-09-01T02:07:05.844Z,82.01
2022-09-01T02:08:05.840Z,82.49
2022-09-01T02:09:05.838Z,82.30
2022-09-01T02:10:05.836Z,82.30
2022-09-01T02:11:05.869Z,82.10
2022-09-01T02:12:05.832Z,81.72
2022-09-01T02:13:05.845Z,82.01
2022-09-01T02:14:05.860Z,82.20
2022-09-01T02:15:05.854Z,82.49
2022-09-01T02:16:05.871Z,82.49
2022-09-01T02:17:05.887Z,82.78
2022-09-01T02:18:05.868Z,83.26
2022-09-01T02:19:05.889Z,83.36
2022-09-01T02:20:05.866Z,82.97
2022-09-01T02:21:05.863Z,82.97
2022-09-01T02:22:05.866Z,82.97
2022-09-01T02:23:05.887Z,83.45
2022-09-01T02:24:05.889Z,83.54
2022-09-01T02:25:05.888Z,83.64
2022-09-01T02:26:15.978Z,83.26
2022-09-01T02:27:05.887Z,83.54
2022-09-01T02:28:05.887Z,83.74
2022-09-01T02:29:05.902Z,84.12
2022-09-01T02:30:05.905Z,84.31
2022-09-01T02:31:05.961Z,84.03
2022-09-01T02:32:05.896Z,84.12
2022-09-01T02:33:05.894Z,84.31
2022-09-01T02:34:05.898Z,84.70
2022-09-01T02:35:05.901Z,84.12
2022-09-01T02:36:05.911Z,84.51
2022-09-01T02:37:05.907Z,84.22
2022-09-01T02:38:05.914Z,84.60
2022-09-01T02:39:05.921Z,84.99
2022-09-01T02:40:05.939Z,84.80
2022-09-01T02:41:05.929Z,84.70
2022-09-01T02:42:05.914Z,84.60
2022-09-01T02:43:05.948Z,84.60
2022-09-01T02:44:05.942Z,84.51
2022-09-01T02:45:05.923Z,84.99
2022-09-01T02:46:06.095Z,84.80
2022-09-01T02:47:05.934Z,84.99
2022-09-01T02:48:05.936Z,84.89
2022-09-01T02:49:05.955Z,85.18
2022-09-01T02:50:05.951Z,85.28
2022-09-01T02:51:05.955Z,84.99
2022-09-01T02:52:05.965Z,85.57
2022-09-01T02:53:05.964Z,85.37
2022-09-01T02:54:05.958Z,85.57
2022-09-01T02:55:05.959Z,85.47
2022-09-01T02:56:05.972Z,85.47
2022-09-01T02:57:05.977Z,85.66
2022-09-01T02:58:05.993Z,85.66
2022-09-01T02:59:05.967Z,86.33
2022-09-01T03:00:05.975Z,86.24
2022-09-01T03:01:06.001Z,85.66
2022-09-01T03:02:06.007Z,86.72
2022-09-01T03:03:05.973Z,86.24
2022-09-01T03:04:06.035Z,86.14
2022-09-01T03:05:06.292Z,86.24
2022-09-01T03:06:05.994Z,85.95
2022-09-01T03:07:05.979Z,85.75
2022-09-01T03:08:05.997Z,85.95
2022-09-01T03:09:06.009Z,85.85
2022-09-01T03:10:05.998Z,86.24
2022-09-01T03:11:09.682Z,86.24
2022-09-01T03:12:06.013Z,86.72
2022-09-01T03:13:06.017Z,86.62
2022-09-01T03:14:06.028Z,86.91
2022-09-01T03:15:06.010Z,86.77
2022-09-01T03:16:06.082Z,86.72
2022-09-01T03:17:06.011Z,86.77
2022-09-01T03:18:06.140Z,87.05
2022-09-01T03:19:06.031Z,87.25
2022-09-01T03:20:06.058Z,87.44
2022-09-01T03:21:06.033Z,87.35
2022-09-01T03:22:06.044Z,87.35
2022-09-01T03:23:06.026Z,87.49
2022-09-01T03:24:06.029Z,87.54
2022-09-01T03:25:06.039Z,87.54
2022-09-01T03:26:06.171Z,87.63
2022-09-01T03:27:06.036Z,87.73
2022-09-01T03:28:06.043Z,87.82
2022-09-01T03:29:06.046Z,87.44
2022-09-01T03:30:06.073Z,87.25
2022-09-01T03:31:06.077Z,87.82
2022-09-01T03:32:06.098Z,87.54
2022-09-01T03:33:06.087Z,87.35
2022-09-01T03:34:06.112Z,88.40
2022-09-01T03:35:06.066Z,87.63
2022-09-01T03:36:07.568Z,87.54
2022-09-01T03:37:06.174Z,87.73
2022-09-01T03:38:06.075Z,87.25
2022-09-01T03:39:06.084Z,87.35
2022-09-01T03:40:06.112Z,88.40
2022-09-01T03:41:06.070Z,88.21
2022-09-01T03:42:06.081Z,87.44
2022-09-01T03:43:06.088Z,87.63
2022-09-01T03:44:06.094Z,88.31
2022-09-01T03:45:06.118Z,88.02
2022-09-01T03:46:06.143Z,88.59
2022-09-01T03:47:06.087Z,88.31
2022-09-01T03:48:06.097Z,88.35
2022-09-01T03:49:06.112Z,88.84
2022-09-01T03:50:06.104Z,88.93
2022-09-01T03:51:06.108Z,89.99
2022-09-01T03:52:06.124Z,90.08
2022-09-01T03:53:06.122Z,89.51
2022-09-01T03:54:06.110Z,89.70
2022-09-01T03:55:06.118Z,89.51
2022-09-01T03:56:06.137Z,89.70
2022-09-01T03:57:06.127Z,89.89
2022-09-01T03:58:06.146Z,89.51
2022-09-01T03:59:06.424Z,89.89
2022-09-01T04:00:06.137Z,89.61
2022-09-01T04:01:06.171Z,89.70
2022-09-01T04:02:06.171Z,89.70
2022-09-01T04:03:06.136Z,90.47
2022-09-01T04:04:06.131Z,90.47
2022-09-01T04:05:08.465Z,90.85
2022-09-01T04:06:06.152Z,90.85
2022-09-01T04:07:06.147Z,91.57
2022-09-01T04:08:06.161Z,92.05
2022-09-01T04:09:06.164Z,91.77
2022-09-01T04:10:06.161Z,91.48
2022-09-01T04:11:06.151Z,91.96
2022-09-01T04:12:06.175Z,92.34
2022-09-01T04:13:06.155Z,92.34
2022-09-01T04:14:06.164Z,92.54
2022-09-01T04:15:06.166Z,93.01
2022-09-01T04:16:06.186Z,92.82
2022-09-01T04:17:06.165Z,93.11
2022-09-01T04:18:06.207Z,93.01
2022-09-01T04:19:06.165Z,93.01
2022-09-01T04:20:06.185Z,92.87
2022-09-01T04:21:06.190Z,92.77
2022-09-01T04:22:06.176Z,93.26
2022-09-01T04:23:06.200Z,93.16
2022-09-01T04:24:06.193Z,93.26
2022-09-01T04:25:06.176Z,92.97
2022-09-01T04:26:06.197Z,93.26
2022-09-01T04:27:06.210Z,93.16
2022-09-01T04:28:06.192Z,93.63
2022-09-01T04:29:06.221Z,94.31
2022-09-01T04:30:06.209Z,93.83
2022-09-01T04:31:06.202Z,94.40
2022-09-01T04:32:06.251Z,93.93
2022-09-01T04:33:06.197Z,94.79
2022-09-01T04:34:06.205Z,94.69
2022-09-01T04:35:06.223Z,94.69
2022-09-01T04:36:06.224Z,94.69
2022-09-01T04:37:06.226Z,94.40
2022-09-01T04:38:06.213Z,94.69
2022-09-01T04:39:06.220Z,94.50
2022-09-01T04:40:06.323Z,94.79
2022-09-01T04:41:06.212Z,94.69
2022-09-01T04:42:06.287Z,94.69
2022-09-01T04:46:10.443Z,95.89
2022-09-01T04:47:10.392Z,95.70
2022-09-01T04:50:04.152Z,95.75
2022-09-01T04:50:42.498Z,95.70
2022-09-01T04:51:42.495Z,95.60
2022-09-01T04:52:42.477Z,95.65
2022-09-01T04:53:42.534Z,95.89
2022-09-01T04:54:42.591Z,95.60
2022-09-01T04:55:42.489Z,95.84
2022-09-01T04:56:42.623Z,95.79
2022-09-01T04:57:42.584Z,95.89
2022-09-01T04:58:42.490Z,96.22
2022-09-01T04:59:42.560Z,95.94
2022-09-01T05:00:42.547Z,95.89
2022-09-01T05:01:42.548Z,96.37
2022-09-01T05:02:42.657Z,96.37
2022-09-01T05:03:42.543Z,96.22
2022-09-01T05:04:42.511Z,96.13
2022-09-01T05:05:42.535Z,96.61
2022-09-01T05:06:42.530Z,96.22
2022-09-01T05:07:42.722Z,96.61
2022-09-01T05:08:42.536Z,96.80
2022-09-01T05:09:42.584Z,96.47
2022-09-01T05:10:42.552Z,96.32
2022-09-01T05:11:42.543Z,96.84
2022-09-01T05:12:42.623Z,96.51
2022-09-01T05:13:42.595Z,96.22
2022-09-01T05:14:42.581Z,96.03
2022-09-01T05:15:42.531Z,96.42
2022-09-01T05:16:42.647Z,96.51
2022-09-01T05:17:42.566Z,95.94
2022-09-01T05:18:50.150Z,95.94
2022-09-01T05:19:42.533Z,95.84
2022-09-01T05:20:42.549Z,95.75
2022-09-01T05:21:42.535Z,95.84
2022-09-01T05:22:42.555Z,95.94
2022-09-01T05:23:42.538Z,95.65
2022-09-01T05:24:42.533Z,95.84
2022-09-01T05:25:42.539Z,95.94
2022-09-01T05:26:42.557Z,95.56
2022-09-01T05:27:42.574Z,95.84
2022-09-01T05:28:42.557Z,95.84
2022-09-01T05:29:42.550Z,95.84
2022-09-01T05:30:42.545Z,95.31
2022-09-01T05:31:42.628Z,95.94
2022-09-01T05:32:42.550Z,96.03
2022-09-01T05:33:42.580Z,95.36
2022-09-01T05:34:42.556Z,95.41
2022-09-01T05:35:42.572Z,95.41
2022-09-01T05:36:42.574Z,95.41
2022-09-01T05:37:42.567Z,94.93
2022-09-01T05:38:42.574Z,94.93
2022-09-01T05:39:42.568Z,95.03
2022-09-01T05:40:42.645Z,94.17
2022-09-01T05:41:42.572Z,94.74
2022-09-01T05:42:42.585Z,94.35
2022-09-01T05:43:42.573Z,94.93
2022-09-01T05:44:42.586Z,94.74
2022-09-01T05:46:05.264Z,94.84
2022-09-01T05:46:42.682Z,94.93
2022-09-01T05:47:42.589Z,94.35
2022-09-01T05:48:42.585Z,94.35
2022-09-01T05:49:42.603Z,94.84
2022-09-01T05:50:42.589Z,94.74
2022-09-01T05:51:45.525Z,94.93
2022-09-01T05:52:42.604Z,94.35
2022-09-01T05:53:42.602Z,94.45
2022-09-01T05:54:42.611Z,94.64
2022-09-01T05:55:42.602Z,94.45
2022-09-01T05:56:43.886Z,94.45
2022-09-01T05:57:42.610Z,94.84
2022-09-01T05:59:42.629Z,93.78
2022-09-01T06:00:42.622Z,94.07
2022-09-01T06:01:46.833Z,94.17
2022-09-01T06:02:42.987Z,93.01
2022-09-01T06:03:42.612Z,93.30
2022-09-01T06:04:42.642Z,93.44
2022-09-01T06:05:42.642Z,93.54
2022-09-01T06:07:01.713Z,93.44
2022-09-01T06:07:42.657Z,93.15
2022-09-01T06:08:46.743Z,93.15
2022-09-01T06:09:42.639Z,92.86
2022-09-01T06:10:42.651Z,92.86
2022-09-01T06:11:42.638Z,92.53
2022-09-01T06:12:42.632Z,92.33
2022-09-01T06:13:42.634Z,91.86
2022-09-01T06:14:42.649Z,92.05
2022-09-01T06:15:42.651Z,91.57
2022-09-01T06:16:42.693Z,91.42
2022-09-01T06:17:42.659Z,91.42
2022-09-01T06:18:42.652Z,90.84
2022-09-01T06:19:42.659Z,90.08
2022-09-01T06:20:42.678Z,90.27
2022-09-01T06:21:42.659Z,89.40
2022-09-01T06:22:42.681Z,89.22
2022-09-01T06:23:42.665Z,88.83
2022-09-01T06:24:43.840Z,89.07
2022-09-01T06:25:42.671Z,88.68
2022-09-01T06:26:42.691Z,88.68
2022-09-01T06:27:42.706Z,88.87
2022-09-01T06:28:42.668Z,88.39
2022-09-01T06:29:42.669Z,87.86
2022-09-01T06:30:42.696Z,87.67
2022-09-01T06:31:42.725Z,86.80
2022-09-01T06:32:42.679Z,86.90
2022-09-01T06:33:42.688Z,87.09
2022-09-01T06:34:42.837Z,87.19
2022-09-01T06:35:42.707Z,86.90
2022-09-01T06:36:42.692Z,85.88
2022-09-01T06:37:42.701Z,86.56
2022-09-01T06:38:42.697Z,86.46
2022-09-01T06:39:42.734Z,86.46
2022-09-01T06:40:42.881Z,86.18
2022-09-01T06:41:42.703Z,85.78
2022-09-01T06:42:42.735Z,85.31
2022-09-01T06:43:42.706Z,85.25
2022-09-01T06:44:42.722Z,85.25
2022-09-01T06:45:42.716Z,84.00
2022-09-01T06:46:42.918Z,83.08
2022-09-01T06:47:42.731Z,82.79
2022-09-01T06:48:42.735Z,82.35
2022-09-01T06:49:42.752Z,81.48
2022-09-01T06:51:42.744Z,80.08
2022-09-01T06:53:42.759Z,80.85
2022-09-01T06:54:42.747Z,79.98
2022-09-01T06:55:42.755Z,80.22
2022-09-01T06:58:42.778Z,77.26
2022-09-01T06:59:42.772Z,75.67
2022-09-01T07:00:42.768Z,74.51
2022-09-01T07:01:42.875Z,73.96
2022-09-01T07:02:42.838Z,74.16
2022-09-01T07:03:42.789Z,73.32
2022-09-01T07:04:42.791Z,72.74
2022-09-01T07:09:50.138Z,70.14
2022-09-01T07:13:05.437Z,69.40
2022-09-01T07:14:15.370Z,69.11
2022-09-01T07:16:51.945Z,67.69
2022-09-01T07:17:42.860Z,67.02
2022-09-01T07:18:42.858Z,67.11
2022-09-01T07:19:49.981Z,66.92
2022-09-01T07:24:42.913Z,66.20
2022-09-01T07:26:47.293Z,65.43
2022-09-01T07:27:42.902Z,65.43
2022-09-01T07:28:42.901Z,65.72
2022-09-01T07:29:42.944Z,65.05
2022-09-01T07:30:42.924Z,64.37
2022-09-01T07:31:50.400Z,64.50
2022-09-01T07:32:44.151Z,63.82
2022-09-01T07:33:44.226Z,63.62
2022-09-01T07:34:46.611Z,63.85
2022-09-01T07:36:25.761Z,62.59
2022-09-01T07:39:48.518Z,62.19
2022-09-01T07:39:50.685Z,61.61
2022-09-01T07:39:57.604Z,79.10
2022-09-01T07:42:55.516Z,65.79
2022-09-01T07:42:59.127Z,65.89
2022-09-01T07:43:42.982Z,61.13
2022-09-01T07:44:44.147Z,61.13
2022-09-01T07:45:58.926Z,61.22
2022-09-01T07:46:43.090Z,60.64
2022-09-01T07:47:58.366Z,60.45
2022-09-01T07:50:25.327Z,61.39
2022-09-01T07:51:35.000Z,61.29
2022-09-01T07:51:43.137Z,61.39
2022-09-01T07:52:43.037Z,62.16
2022-09-01T07:53:43.048Z,61.29
2022-09-01T07:54:43.044Z,60.39
2022-09-01T07:55:44.173Z,61.26
2022-09-01T07:56:43.072Z,61.65
2022-09-01T07:57:43.067Z,61.85
2022-09-01T07:58:43.078Z,62.04
2022-09-01T07:59:43.086Z,61.91
2022-09-01T08:00:43.081Z,62.40
2022-09-01T08:01:43.215Z,61.72
2022-09-01T08:02:43.166Z,62.30
2022-09-01T08:03:43.121Z,61.88
2022-09-01T08:04:43.114Z,61.88
2022-09-01T08:05:43.119Z,63.14
2022-09-01T08:06:43.116Z,62.34
2022-09-01T08:07:58.425Z,63.59
2022-09-01T08:08:43.140Z,62.92
2022-09-01T08:09:44.017Z,63.46
2022-09-01T08:10:43.149Z,64.24
2022-09-01T08:12:02.290Z,64.14
2022-09-01T08:12:43.160Z,63.85
2022-09-01T08:13:43.175Z,64.82
2022-09-01T08:14:43.187Z,64.82
2022-09-01T08:16:08.358Z,64.62
2022-09-01T08:16:51.886Z,64.62
2022-09-01T08:17:51.699Z,64.62
2022-09-01T08:18:50.554Z,64.24
2022-09-01T08:19:43.989Z,63.27
2022-09-01T08:20:43.197Z,64.24
2022-09-01T08:21:43.205Z,64.24
2022-09-01T08:22:43.216Z,64.92
2022-09-01T08:23:43.357Z,64.31
2022-09-01T08:24:43.234Z,63.95
2022-09-01T08:25:43.235Z,64.72
2022-09-01T08:26:43.239Z,64.40
2022-09-01T08:27:43.247Z,64.53
2022-09-01T08:28:47.237Z,64.24
2022-09-01T08:29:43.268Z,64.01
2022-09-01T08:30:49.133Z,63.43
2022-09-01T08:31:43.323Z,64.01
2022-09-01T08:32:43.281Z,64.34
2022-09-01T08:33:43.288Z,63.34
2022-09-01T08:34:43.291Z,64.11
2022-09-01T08:35:43.506Z,63.95
2022-09-01T08:36:44.235Z,63.76
2022-09-01T08:37:43.294Z,64.24
2022-09-01T08:38:43.320Z,64.43
2022-09-01T08:39:43.304Z,64.62
2022-09-01T08:40:43.386Z,65.20
2022-09-01T08:41:47.255Z,64.14
2022-09-01T08:42:43.332Z,63.27
2022-09-01T08:43:43.323Z,62.98
2022-09-01T08:44:43.355Z,62.88
2022-09-01T08:45:43.368Z,63.56
2022-09-01T08:46:43.458Z,63.37
2022-09-01T08:48:04.777Z,63.18
2022-09-01T08:49:43.767Z,62.37
2022-09-01T08:50:43.378Z,63.08
2022-09-01T08:51:43.374Z,63.08
2022-09-01T08:52:43.389Z,63.43
2022-09-01T08:53:43.404Z,63.46
2022-09-01T08:54:43.398Z,64.31
2022-09-01T08:55:43.401Z,63.14
2022-09-01T08:56:43.411Z,62.95
2022-09-01T08:57:43.409Z,63.24
2022-09-01T08:58:44.085Z,62.98
2022-09-01T08:59:43.434Z,63.14
2022-09-01T09:00:43.434Z,62.98
2022-09-01T09:01:43.471Z,61.72
2022-09-01T09:02:43.513Z,61.43
2022-09-01T09:03:43.453Z,60.66
2022-09-01T09:04:43.460Z,58.44
2022-09-01T09:05:43.446Z,58.53
2022-09-01T09:06:43.459Z,59.69
2022-09-01T09:07:43.478Z,59.50
2022-09-01T09:08:43.498Z,59.40
2022-09-01T09:09:46.458Z,59.40
2022-09-01T09:10:43.482Z,59.50
2022-09-01T09:11:43.497Z,60.08
2022-09-01T09:12:49.906Z,61.53
2022-09-01T09:13:43.500Z,60.47
2022-09-01T09:14:43.517Z,59.01
2022-09-01T09:15:43.549Z,58.44
2022-09-01T09:16:43.515Z,59.21
2022-09-01T09:17:43.535Z,59.11
2022-09-01T09:18:54.833Z,59.28
2022-09-01T09:19:43.590Z,59.40
2022-09-01T09:20:43.576Z,60.08
2022-09-01T09:21:43.547Z,60.85
2022-09-01T09:22:43.564Z,60.75
2022-09-01T09:23:44.552Z,60.66
2022-09-01T09:24:43.582Z,61.15
2022-09-01T09:25:43.587Z,61.15
2022-09-01T09:26:44.579Z,60.37
2022-09-01T09:27:43.595Z,60.75
2022-09-01T09:28:43.599Z,61.72
2022-09-01T09:29:45.499Z,61.53
2022-09-01T09:30:43.682Z,61.33
2022-09-01T09:31:43.612Z,61.36
2022-09-01T09:33:09.692Z,60.98
2022-09-01T09:33:51.781Z,60.57
2022-09-01T09:34:43.623Z,60.69
2022-09-01T09:35:43.667Z,60.88
2022-09-01T09:36:43.647Z,60.78
2022-09-01T09:37:43.647Z,60.78
2022-09-01T09:38:44.093Z,57.88
2022-09-01T09:39:43.657Z,57.88
2022-09-01T09:41:10.562Z,57.88
2022-09-01T09:41:43.830Z,58.78
2022-09-01T09:42:43.702Z,58.88
2022-09-01T09:43:44.511Z,58.01
2022-09-01T09:44:43.690Z,57.81
2022-09-01T09:45:43.709Z,56.94
2022-09-01T09:46:44.163Z,57.91
2022-09-01T09:47:44.890Z,58.49
2022-09-01T09:48:43.714Z,58.11
2022-09-01T09:49:48.691Z,57.71
2022-09-01T09:50:43.728Z,57.71
2022-09-01T09:51:43.734Z,58.11
2022-09-01T09:52:43.756Z,58.98
2022-09-01T09:53:43.760Z,58.69
2022-09-01T09:54:43.775Z,57.75
2022-09-01T09:55:43.756Z,57.53
2022-09-01T09:56:43.764Z,57.84
2022-09-01T09:57:43.797Z,58.14
2022-09-01T09:58:43.788Z,58.06
2022-09-01T09:59:58.782Z,58.06
2022-09-01T10:00:43.804Z,57.29
2022-09-01T10:01:43.880Z,57.87
2022-09-01T10:02:43.829Z,58.45
2022-09-01T10:03:43.866Z,58.58
2022-09-01T10:04:43.843Z,57.70
2022-09-01T10:05:43.848Z,57.83
2022-09-01T10:06:43.851Z,57.54
2022-09-01T10:07:43.889Z,56.18
2022-09-01T10:08:43.865Z,56.40
2022-09-01T10:09:43.895Z,55.04
2022-09-01T10:10:43.892Z,53.00
2022-09-01T10:11:43.900Z,52.88
2022-09-01T10:12:43.914Z,52.59
2022-09-01T10:13:43.923Z,53.10
2022-09-01T10:15:43.959Z,54.88
2022-09-01T10:16:43.964Z,54.68
2022-09-01T10:17:43.975Z,53.45
2022-09-01T10:18:43.985Z,54.10
2022-09-01T10:19:44.005Z,53.64
2022-09-01T10:20:43.988Z,53.96
2022-09-01T10:21:44.000Z,53.38
2022-09-01T10:22:44.838Z,53.47
2022-09-01T10:23:44.917Z,54.71
2022-09-01T10:24:45.887Z,54.71
2022-09-01T10:25:44.509Z,54.29
2022-09-01T10:26:44.070Z,55.39
2022-09-01T10:27:44.306Z,54.35
2022-09-01T10:28:50.817Z,54.05
2022-09-01T10:29:47.735Z,54.35
2022-09-01T10:30:44.240Z,54.35
2022-09-01T10:31:44.143Z,54.35
2022-09-01T10:32:50.783Z,54.42
2022-09-01T10:33:44.162Z,53.83
2022-09-01T10:34:44.171Z,53.83
2022-09-01T10:35:44.174Z,53.28
2022-09-01T10:36:47.110Z,53.77
2022-09-01T10:37:44.223Z,53.54
2022-09-01T10:38:50.420Z,53.71
2022-09-01T10:39:44.227Z,53.16
2022-09-01T10:40:48.686Z,53.28
2022-09-01T10:41:44.281Z,52.36
2022-09-01T10:42:45.327Z,51.90
2022-09-01T10:43:44.276Z,51.24
2022-09-01T10:44:44.300Z,50.19
2022-09-01T10:45:44.395Z,49.34
2022-09-01T10:46:49.397Z,49.17
2022-09-01T10:47:44.506Z,49.41
2022-09-01T10:48:55.059Z,49.88
2022-09-01T10:49:46.364Z,50.14
2022-09-01T10:50:44.375Z,50.80
2022-09-01T10:51:51.420Z,50.19
2022-09-01T10:52:44.402Z,49.73
2022-09-01T10:53:44.656Z,49.37
2022-09-01T10:54:52.613Z,48.41
2022-09-01T10:55:44.455Z,47.48
2022-09-01T10:56:44.689Z,47.77
2022-09-01T10:57:44.458Z,47.31
2022-09-01T10:59:55.841Z,46.28
2022-09-01T11:01:10.754Z,44.96
2022-09-01T11:01:49.095Z,46.09
2022-09-01T11:02:46.848Z,47.24
2022-09-01T11:03:51.701Z,47.58
2022-09-01T11:04:44.689Z,48.05
2022-09-01T11:05:44.602Z,49.37
2022-09-01T11:07:11.753Z,49.17
2022-09-01T11:08:01.417Z,50.02
2022-09-01T11:08:48.252Z,50.21
2022-09-01T11:09:44.709Z,49.92
2022-09-01T11:10:44.658Z,51.39
2022-09-01T11:11:44.701Z,51.19
2022-09-01T11:12:44.707Z,50.68
2022-09-01T11:13:49.561Z,50.95
2022-09-01T11:14:44.728Z,50.85
2022-09-01T11:15:45.023Z,50.95
2022-09-01T11:16:46.415Z,51.40
2022-09-01T11:17:44.748Z,51.99
2022-09-01T11:18:52.842Z,51.09
2022-09-01T11:19:44.842Z,52.45
2022-09-01T11:20:45.524Z,52.45
2022-09-01T11:21:46.780Z,53.69
2022-09-01T11:22:45.772Z,53.00
2022-09-01T11:23:44.839Z,53.56
2022-09-01T11:24:44.836Z,52.50
2022-09-01T11:25:44.868Z,53.44
2022-09-01T11:26:44.859Z,55.28
2022-09-01T11:27:44.895Z,56.45
2022-09-01T11:28:44.913Z,55.69
2022-09-01T11:29:44.924Z,54.36
2022-09-01T11:30:44.922Z,54.63
2022-09-01T11:31:44.960Z,54.92
2022-09-01T11:32:46.917Z,55.38
2022-09-01T11:33:44.942Z,55.38
2022-09-01T11:34:44.972Z,55.77
2022-09-01T11:35:44.967Z,56.45
2022-09-01T11:36:44.968Z,55.67
2022-09-01T11:37:44.982Z,56.15
2022-09-01T11:38:45.008Z,56.05
2022-09-01T11:39:45.003Z,55.96
2022-09-01T11:40:45.080Z,55.96
2022-09-01T11:41:45.044Z,55.96
2022-09-01T11:42:45.758Z,55.57
2022-09-01T11:43:45.029Z,56.54
2022-09-01T11:44:45.072Z,56.54
2022-09-01T11:45:45.119Z,55.96
2022-09-01T11:46:45.074Z,55.77
2022-09-01T11:47:45.065Z,56.03
2022-09-01T11:48:45.085Z,56.13
2022-09-01T11:49:45.095Z,56.13
2022-09-01T11:50:45.108Z,56.41
2022-09-01T11:51:45.097Z,56.49
2022-09-01T11:52:45.121Z,55.90
2022-09-01T11:53:45.150Z,55.32
2022-09-01T11:54:45.131Z,55.49
2022-09-01T11:55:45.144Z,56.46
2022-09-01T11:56:45.148Z,57.33
2022-09-01T11:57:45.160Z,57.20
2022-09-01T11:58:45.190Z,56.62
2022-09-01T11:59:45.179Z,57.40
2022-09-01T12:00:45.212Z,58.85
2022-09-01T12:01:45.197Z,57.88
2022-09-01T12:02:45.255Z,58.47
2022-09-01T12:03:45.292Z,57.98
2022-09-01T12:04:45.211Z,57.88
2022-09-01T12:05:45.235Z,57.20
2022-09-01T12:06:45.236Z,57.50
2022-09-01T12:07:45.238Z,59.23
2022-09-01T12:08:45.252Z,58.56
2022-09-01T12:09:45.254Z,57.86
2022-09-01T12:10:45.254Z,58.07
2022-09-01T12:11:45.316Z,58.92
2022-09-01T12:12:45.269Z,59.31
2022-09-01T12:13:45.287Z,58.92
2022-09-01T12:15:04.740Z,58.34
2022-09-01T12:16:07.377Z,58.34
2022-09-01T12:16:45.358Z,57.86
2022-09-01T12:17:45.307Z,59.11
2022-09-01T12:18:45.324Z,58.63
2022-09-01T12:19:45.327Z,59.21
2022-09-01T12:20:45.355Z,57.56
2022-09-01T12:21:45.379Z,57.86
2022-09-01T12:22:45.359Z,57.95
2022-09-01T12:23:45.351Z,57.37
2022-09-01T12:24:45.397Z,57.95
2022-09-01T12:25:45.365Z,59.31
2022-09-01T12:26:45.412Z,58.44
2022-09-01T12:27:45.425Z,57.86
2022-09-01T12:28:45.414Z,57.95
2022-09-01T12:29:45.389Z,58.72
2022-09-01T12:30:45.414Z,59.31
2022-09-01T12:31:45.472Z,60.08
2022-09-01T12:32:45.454Z,60.08
2022-09-01T12:33:45.429Z,59.50
2022-09-01T12:34:45.426Z,59.98
2022-09-01T12:35:45.477Z,60.57
2022-09-01T12:37:45.466Z,61.43
2022-09-01T12:38:45.457Z,59.98
2022-09-01T12:39:45.472Z,58.92
2022-09-01T12:40:45.495Z,59.11
2022-09-01T12:41:45.475Z,57.76
2022-09-01T12:42:45.517Z,57.86
2022-09-01T12:43:45.628Z,58.53
2022-09-01T12:44:45.498Z,59.40
2022-09-01T12:45:45.528Z,59.98
2022-09-01T12:46:46.683Z,59.50
2022-09-01T12:47:45.527Z,59.59
2022-09-01T12:48:45.523Z,58.14
2022-09-01T12:49:50.540Z,58.72
2022-09-01T12:50:45.547Z,58.24
2022-09-01T12:51:45.567Z,58.34
2022-09-01T12:52:45.561Z,59.08
2022-09-01T12:53:45.589Z,58.63
2022-09-01T12:54:45.568Z,59.76
2022-09-01T12:55:48.670Z,59.18
2022-09-01T12:56:45.572Z,60.17
2022-09-01T12:57:45.578Z,60.05
2022-09-01T12:58:45.615Z,60.66
2022-09-01T12:59:45.594Z,60.17
2022-09-01T13:00:45.631Z,59.59
2022-09-01T13:01:45.801Z,58.89
2022-09-01T13:02:45.813Z,59.08
2022-09-01T13:03:45.656Z,59.56
2022-09-01T13:04:45.627Z,59.28
2022-09-01T13:05:45.641Z,58.14
2022-09-01T13:06:45.651Z,57.82
2022-09-01T13:07:45.658Z,57.86
2022-09-01T13:08:46.248Z,57.82
2022-09-01T13:09:45.932Z,58.98
2022-09-01T13:10:45.668Z,58.40
2022-09-01T13:12:45.808Z,58.60
2022-09-01T13:13:45.681Z,58.60
2022-09-01T13:14:45.723Z,58.98
2022-09-01T13:15:45.720Z,59.59
2022-09-01T13:16:45.732Z,57.92
2022-09-01T13:17:45.721Z,58.31
2022-09-01T13:19:45.743Z,58.53
2022-09-01T13:20:45.730Z,59.40
2022-09-01T13:21:45.736Z,58.60
2022-09-01T13:22:45.753Z,58.53
2022-09-01T13:23:45.759Z,59.40